createdAt,value
2018-05-11T00:00:07.986Z,95864.04
2018-05-11T00:02:39.944Z,95866.23
2018-05-11T00:05:12.263Z,95864.36
2018-05-11T00:07:43.750Z,95866.00
2018-05-11T00:10:16.044Z,95867.09
2018-05-11T00:12:47.686Z,95866.78
2018-05-11T00:15:19.766Z,95863.80
2018-05-11T00:17:52.920Z,95866.12
2018-05-11T00:20:23.725Z,95863.59
2018-05-11T00:22:56.838Z,95861.94
2018-05-11T00:25:28.640Z,95865.47
2018-05-11T00:28:00.517Z,95867.16
2018-05-11T00:30:32.590Z,95862.11
2018-05-11T00:33:04.720Z,95860.45
2018-05-11T00:35:36.961Z,95855.05
2018-05-11T00:38:07.486Z,95853.31
2018-05-11T00:40:39.166Z,95857.13
2018-05-11T00:43:11.034Z,95860.25
2018-05-11T00:45:42.357Z,95859.69
2018-05-11T00:48:13.802Z,95858.91
2018-05-11T00:50:44.894Z,95858.38
2018-05-11T00:53:16.432Z,95861.64
2018-05-11T00:55:54.709Z,95856.55
2018-05-11T00:58:26.983Z,95857.04
2018-05-11T01:00:58.094Z,95863.47
2018-05-11T01:03:30.717Z,95857.13
2018-05-11T01:06:01.645Z,95863.75
2018-05-11T01:08:33.676Z,95860.66
2018-05-11T01:11:04.994Z,95855.37
2018-05-11T01:13:36.390Z,95852.41
2018-05-11T01:16:08.212Z,95848.42
2018-05-11T01:18:39.961Z,95846.80
2018-05-11T01:21:12.407Z,95844.95
2018-05-11T01:23:43.615Z,95842.36
2018-05-11T01:26:15.764Z,95839.35
2018-05-11T01:28:47.351Z,95837.30
2018-05-11T01:31:18.908Z,95837.40
2018-05-11T01:33:49.350Z,95835.66
2018-05-11T01:36:20.678Z,95842.09
2018-05-11T01:38:52.696Z,95836.80
2018-05-11T01:41:24.881Z,95842.41
2018-05-11T01:43:55.614Z,95840.61
2018-05-11T01:46:27.345Z,95836.10
2018-05-11T01:49:00.103Z,95829.25
2018-05-11T01:51:32.268Z,95834.23
2018-05-11T01:54:04.297Z,95831.86
2018-05-11T01:56:35.778Z,95834.13
2018-05-11T01:59:06.871Z,95833.75
2018-05-11T02:01:38.468Z,95832.54
2018-05-11T02:04:10.696Z,95830.70
2018-05-11T02:06:42.102Z,95831.36
2018-05-11T02:09:15.096Z,95822.38
2018-05-11T02:11:48.659Z,95821.14
2018-05-11T02:14:20.230Z,95817.66
2018-05-11T02:16:51.042Z,95820.79
2018-05-11T02:19:23.916Z,95823.14
2018-05-11T02:21:55.526Z,95815.96
2018-05-11T02:24:27.072Z,95813.59
2018-05-11T02:26:58.610Z,95816.72
2018-05-11T02:29:30.599Z,95813.52
2018-05-11T02:32:02.117Z,95810.20
2018-05-11T02:34:34.774Z,95809.94
2018-05-11T02:37:07.196Z,95803.78
2018-05-11T02:39:38.948Z,95806.45
2018-05-11T02:42:10.393Z,95799.34
2018-05-11T02:44:42.004Z,95799.68
2018-05-11T02:47:13.778Z,95797.79
2018-05-11T02:49:46.022Z,95795.20
2018-05-11T02:52:18.064Z,95794.91
2018-05-11T02:54:49.909Z,95794.36
2018-05-11T02:57:22.913Z,95795.36
2018-05-11T02:59:53.537Z,95802.97
2018-05-11T03:02:25.466Z,95802.58
2018-05-11T03:04:57.590Z,95803.53
2018-05-11T03:07:28.699Z,95805.65
2018-05-11T03:10:01.433Z,95812.28
2018-05-11T03:12:33.533Z,95813.79
2018-05-11T03:15:07.725Z,95812.02
2018-05-11T03:17:39.578Z,95815.02
2018-05-11T03:20:11.450Z,95811.69
2018-05-11T03:22:44.538Z,95805.95
2018-05-11T03:25:15.036Z,95806.54
2018-05-11T03:27:46.690Z,95805.98
2018-05-11T03:30:18.105Z,95809.30
2018-05-11T03:32:49.635Z,95811.75
2018-05-11T03:35:21.883Z,95809.87
2018-05-11T03:37:54.401Z,95813.71
2018-05-11T03:40:26.244Z,95811.71
2018-05-11T03:42:57.854Z,95807.99
2018-05-11T03:45:33.592Z,95807.91
2018-05-11T03:48:05.161Z,95811.56
2018-05-11T03:50:36.307Z,95808.33
2018-05-11T03:53:08.701Z,95808.08
2018-05-11T03:55:40.659Z,95809.75
2018-05-11T03:58:11.842Z,95809.84
2018-05-11T04:00:42.156Z,95811.53
2018-05-11T04:03:24.989Z,95812.47
2018-05-11T04:06:08.380Z,95815.89
2018-05-11T04:08:48.181Z,95818.20
2018-05-11T04:11:21.673Z,95819.31
2018-05-11T04:13:52.602Z,95823.56
2018-05-11T04:16:24.767Z,95820.05
2018-05-11T04:18:56.476Z,95816.72
2018-05-11T04:21:28.311Z,95818.03
2018-05-11T04:24:00.151Z,95815.16
2018-05-11T04:26:31.000Z,95815.87
2018-05-11T04:29:01.603Z,95817.14
2018-05-11T04:31:33.898Z,95820.66
2018-05-11T04:34:04.392Z,95827.81
2018-05-11T04:36:37.807Z,95826.41
2018-05-11T04:39:08.945Z,95828.85
2018-05-11T04:41:41.052Z,95827.22
2018-05-11T04:44:12.613Z,95830.48
2018-05-11T04:46:43.594Z,95827.53
2018-05-11T04:49:15.507Z,95828.23
2018-05-11T04:51:44.946Z,95827.59
2018-05-11T04:54:18.104Z,95826.09
2018-05-11T04:56:49.520Z,95830.30
2018-05-11T04:59:21.389Z,95830.39
2018-05-11T05:01:53.900Z,95825.38
2018-05-11T05:04:26.065Z,95822.16
2018-05-11T05:06:57.159Z,95822.05
2018-05-11T05:09:28.972Z,95823.52
2018-05-11T05:12:01.541Z,95821.83
2018-05-11T05:14:33.178Z,95822.40
2018-05-11T05:17:04.805Z,95820.44
2018-05-11T05:19:36.217Z,95819.02
2018-05-11T05:22:07.811Z,95823.81
2018-05-11T05:24:39.910Z,95829.95
2018-05-11T05:27:11.768Z,95828.66
2018-05-11T05:29:43.268Z,95823.91
2018-05-11T05:32:15.290Z,95821.05
2018-05-11T05:34:46.823Z,95819.61
2018-05-11T05:37:18.330Z,95813.70
2018-05-11T05:39:50.399Z,95810.25
2018-05-11T05:42:21.881Z,95808.83
2018-05-11T05:44:53.563Z,95811.49
2018-05-11T05:47:24.320Z,95814.00
2018-05-11T05:49:55.721Z,95809.40
2018-05-11T05:52:25.517Z,95811.28
2018-05-11T05:54:56.821Z,95811.99
2018-05-11T05:57:29.830Z,95810.61
2018-05-11T06:00:02.042Z,95810.85
2018-05-11T06:02:35.958Z,95810.06
2018-05-11T06:05:07.637Z,95814.95
2018-05-11T06:07:37.076Z,95815.06
2018-05-11T06:10:08.316Z,95819.59
2018-05-11T06:12:39.289Z,95814.64
2018-05-11T06:15:09.636Z,95816.68
2018-05-11T06:17:40.925Z,95825.65
2018-05-11T06:20:12.937Z,95829.19
2018-05-11T06:22:43.919Z,95829.02
2018-05-11T06:25:15.496Z,95828.06
2018-05-11T06:27:47.183Z,95820.62
2018-05-11T06:30:17.937Z,95820.98
2018-05-11T06:32:48.837Z,95823.86
2018-05-11T06:35:19.447Z,95823.19
2018-05-11T06:37:51.147Z,95824.20
2018-05-11T06:40:22.676Z,95819.72
2018-05-11T06:42:54.474Z,95814.39
2018-05-11T06:45:26.077Z,95817.42
2018-05-11T06:47:57.477Z,95811.77
2018-05-11T06:50:28.450Z,95810.14
2018-05-11T06:52:59.575Z,95811.93
2018-05-11T06:55:30.741Z,95809.67
2018-05-11T06:58:03.486Z,95805.55
2018-05-11T07:00:35.857Z,95800.38
2018-05-11T07:03:10.625Z,95802.11
2018-05-11T07:05:43.285Z,95801.86
2018-05-11T07:08:14.762Z,95799.72
2018-05-11T07:10:46.989Z,95803.00
2018-05-11T07:13:19.537Z,95810.26
2018-05-11T07:15:50.604Z,95806.89
2018-05-11T07:18:21.814Z,95801.98
2018-05-11T07:20:53.244Z,95801.13
2018-05-11T07:23:24.878Z,95796.84
2018-05-11T07:25:57.717Z,95797.16
2018-05-11T07:28:28.892Z,95797.91
2018-05-11T07:31:00.137Z,95796.89
2018-05-11T07:33:31.272Z,95795.92
2018-05-11T07:36:02.533Z,95797.73
2018-05-11T07:38:33.512Z,95790.36
2018-05-11T07:41:05.229Z,95798.89
2018-05-11T07:43:37.117Z,95783.94
2018-05-11T07:46:08.644Z,95782.27
2018-05-11T07:48:41.272Z,95772.45
2018-05-11T07:51:12.895Z,95773.17
2018-05-11T07:53:43.995Z,95775.56
2018-05-11T07:56:16.797Z,95780.57
2018-05-11T07:58:48.116Z,95775.11
2018-05-11T08:01:19.145Z,95776.20
2018-05-11T08:03:49.097Z,95775.85
2018-05-11T08:06:19.827Z,95766.62
2018-05-11T08:08:51.539Z,95768.20
2018-05-11T08:11:22.894Z,95767.80
2018-05-11T08:13:54.556Z,95768.09
2018-05-11T08:16:26.041Z,95769.77
2018-05-11T08:18:56.687Z,95772.95
2018-05-11T08:21:27.787Z,95768.88
2018-05-11T08:24:01.425Z,95768.09
2018-05-11T08:26:32.557Z,95760.12
2018-05-11T08:29:04.976Z,95756.70
2018-05-11T08:31:35.887Z,95746.79
2018-05-11T08:34:07.347Z,95746.69
2018-05-11T08:36:38.583Z,95745.35
2018-05-11T08:39:10.981Z,95733.11
2018-05-11T08:41:42.791Z,95738.29
2018-05-11T08:44:15.745Z,95735.42
2018-05-11T08:46:46.442Z,95736.38
2018-05-11T08:49:18.536Z,95732.89
2018-05-11T08:51:52.368Z,95730.91
2018-05-11T08:54:23.732Z,95722.28
2018-05-11T08:56:55.776Z,95723.33
2018-05-11T08:59:27.056Z,95724.69
2018-05-11T09:01:57.980Z,95720.09
2018-05-11T09:04:29.201Z,95722.33
2018-05-11T09:07:01.254Z,95711.76
2018-05-11T09:09:32.217Z,95713.27
2018-05-11T09:12:05.015Z,95711.05
2018-05-11T09:14:36.357Z,95714.72
2018-05-11T09:17:08.825Z,95712.38
2018-05-11T09:19:42.043Z,95706.55
2018-05-11T09:22:13.581Z,95700.73
2018-05-11T09:24:45.677Z,95697.91
2018-05-11T09:27:17.680Z,95693.09
2018-05-11T09:29:49.712Z,95696.94
2018-05-11T09:32:23.134Z,95693.08
2018-05-11T09:34:55.298Z,95692.98
2018-05-11T09:37:26.495Z,95689.22
2018-05-11T09:39:58.301Z,95688.70
2018-05-11T09:42:29.759Z,95687.59
2018-05-11T09:45:01.051Z,95682.54
2018-05-11T09:47:31.136Z,95684.84
2018-05-11T09:50:03.679Z,95680.63
2018-05-11T09:52:36.293Z,95672.78
2018-05-11T09:55:08.317Z,95670.39
2018-05-11T09:57:39.983Z,95678.94
2018-05-11T10:00:13.247Z,95669.79
2018-05-11T10:02:45.618Z,95669.31
2018-05-11T10:05:17.453Z,95671.49
2018-05-11T10:07:49.770Z,95667.39
2018-05-11T10:10:19.774Z,95666.75
2018-05-11T10:12:52.012Z,95668.67
2018-05-11T10:15:22.326Z,95663.66
2018-05-11T10:17:53.420Z,95659.10
2018-05-11T10:20:24.445Z,95657.55
2018-05-11T10:22:56.138Z,95655.81
2018-05-11T10:25:27.506Z,95653.17
2018-05-11T10:27:59.338Z,95653.30
2018-05-11T10:30:30.419Z,95652.67
2018-05-11T10:33:01.548Z,95650.23
2018-05-11T10:35:33.080Z,95641.41
2018-05-11T10:38:03.289Z,95643.16
2018-05-11T10:40:34.982Z,95633.69
2018-05-11T10:43:07.493Z,95629.55
2018-05-11T10:45:39.484Z,95628.58
2018-05-11T10:48:11.026Z,95619.14
2018-05-11T10:50:42.170Z,95621.97
2018-05-11T10:53:13.402Z,95608.19
2018-05-11T10:55:45.374Z,95601.43
2018-05-11T10:58:17.037Z,95595.87
2018-05-11T11:00:48.071Z,95593.18
2018-05-11T11:03:19.776Z,95595.97
2018-05-11T11:05:51.918Z,95605.34
2018-05-11T11:08:24.434Z,95602.75
2018-05-11T11:10:56.212Z,95591.56
2018-05-11T11:13:28.925Z,95586.73
2018-05-11T11:16:00.517Z,95591.55
2018-05-11T11:18:33.169Z,95592.59
2018-05-11T11:21:05.243Z,95581.42
2018-05-11T11:23:38.828Z,95578.31
2018-05-11T11:26:10.775Z,95565.47
2018-05-11T11:28:40.988Z,95573.17
2018-05-11T11:31:11.748Z,95571.03
2018-05-11T11:33:43.937Z,95565.89
2018-05-11T11:36:14.857Z,95556.03
2018-05-11T11:38:45.735Z,95553.59
2018-05-11T11:41:17.086Z,95556.13
2018-05-11T11:43:48.853Z,95546.89
2018-05-11T11:46:20.477Z,95551.06
2018-05-11T11:48:53.075Z,95548.45
2018-05-11T11:51:25.927Z,95543.14
2018-05-11T11:53:58.770Z,95540.05
2018-05-11T11:56:29.988Z,95536.13
2018-05-11T11:59:03.135Z,95536.86
2018-05-11T12:01:34.470Z,95548.28
2018-05-11T12:04:06.141Z,95536.88
2018-05-11T12:06:37.954Z,95537.42
2018-05-11T12:09:08.820Z,95532.06
2018-05-11T12:11:40.390Z,95531.21
2018-05-11T12:14:12.546Z,95526.64
2018-05-11T12:16:44.447Z,95523.85
2018-05-11T12:19:15.671Z,95526.87
2018-05-11T12:21:47.065Z,95514.01
2018-05-11T12:24:18.374Z,95524.14
2018-05-11T12:26:50.010Z,95517.66
2018-05-11T12:29:21.672Z,95519.89
2018-05-11T12:31:52.745Z,95509.44
2018-05-11T12:34:23.238Z,95515.62
2018-05-11T12:36:54.694Z,95509.48
2018-05-11T12:39:25.615Z,95521.59
2018-05-11T12:41:57.338Z,95514.87
2018-05-11T12:44:28.451Z,95504.17
2018-05-11T12:46:59.883Z,95496.98
2018-05-11T12:49:31.125Z,95498.51
2018-05-11T12:52:01.184Z,95496.34
2018-05-11T12:54:32.763Z,95489.92
2018-05-11T12:57:04.602Z,95493.18
2018-05-11T12:59:35.159Z,95489.27
2018-05-11T13:02:06.764Z,95485.62
2018-05-11T13:04:37.358Z,95487.25
2018-05-11T13:07:08.716Z,95483.38
2018-05-11T13:09:39.706Z,95471.91
2018-05-11T13:12:10.208Z,95464.70
2018-05-11T13:14:42.122Z,95465.09
2018-05-11T13:17:14.178Z,95461.00
2018-05-11T13:19:45.090Z,95461.81
2018-05-11T13:22:16.068Z,95465.80
2018-05-11T13:24:47.985Z,95460.66
2018-05-11T13:27:18.638Z,95462.94
2018-05-11T13:29:50.309Z,95463.25
2018-05-11T13:32:21.744Z,95451.45
2018-05-11T13:34:53.930Z,95442.72
2018-05-11T13:37:25.299Z,95445.05
2018-05-11T13:39:57.761Z,95442.98
2018-05-11T13:42:29.563Z,95443.59
2018-05-11T13:45:01.960Z,95450.04
2018-05-11T13:47:33.168Z,95447.48
2018-05-11T13:50:04.678Z,95455.24
2018-05-11T13:52:35.829Z,95448.15
2018-05-11T13:55:07.720Z,95436.09
2018-05-11T13:57:39.000Z,95430.70
2018-05-11T14:00:10.863Z,95431.05
2018-05-11T14:02:43.594Z,95428.06
2018-05-11T14:05:14.863Z,95429.67
2018-05-11T14:07:46.975Z,95427.59
2018-05-11T14:10:18.784Z,95433.85
2018-05-11T14:12:50.285Z,95428.31
2018-05-11T14:15:20.890Z,95427.72
2018-05-11T14:17:52.183Z,95419.95
2018-05-11T14:20:23.941Z,95418.34
2018-05-11T14:22:57.677Z,95419.34
2018-05-11T14:25:34.838Z,95420.13
2018-05-11T14:28:06.121Z,95421.86
2018-05-11T14:30:37.836Z,95418.28
2018-05-11T14:33:08.197Z,95418.36
2018-05-11T14:35:39.001Z,95415.78
2018-05-11T14:38:10.129Z,95414.69
2018-05-11T14:40:41.817Z,95407.80
2018-05-11T14:43:14.149Z,95403.34
2018-05-11T14:45:45.337Z,95409.77
2018-05-11T14:48:16.471Z,95407.24
2018-05-11T14:50:48.359Z,95413.00
2018-05-11T14:53:20.283Z,95410.16
2018-05-11T14:55:51.514Z,95412.35
2018-05-11T14:58:22.295Z,95405.92
2018-05-11T15:00:53.281Z,95403.00
2018-05-11T15:03:24.393Z,95400.77
2018-05-11T15:05:56.199Z,95398.64
2018-05-11T15:08:27.124Z,95407.12
2018-05-11T15:10:57.686Z,95406.73
2018-05-11T15:13:28.697Z,95399.98
2018-05-11T15:16:00.013Z,95399.98
2018-05-11T15:18:31.852Z,95398.18
2018-05-11T15:21:01.707Z,95397.19
2018-05-11T15:23:32.987Z,95401.78
2018-05-11T15:26:03.149Z,95398.73
2018-05-11T15:28:34.436Z,95398.58
2018-05-11T15:31:04.156Z,95392.22
2018-05-11T15:33:36.137Z,95388.00
2018-05-11T15:36:06.766Z,95386.52
2018-05-11T15:38:37.349Z,95383.88
2018-05-11T15:41:08.847Z,95380.56
2018-05-11T15:43:40.152Z,95381.34
2018-05-11T15:46:10.424Z,95382.72
2018-05-11T15:48:41.084Z,95385.50
2018-05-11T15:51:12.339Z,95387.09
2018-05-11T15:53:43.529Z,95387.19
2018-05-11T15:56:14.700Z,95386.84
2018-05-11T15:58:45.736Z,95391.48
2018-05-11T16:01:16.763Z,95388.08
2018-05-11T16:03:48.291Z,95390.50
2018-05-11T16:06:18.317Z,95388.63
2018-05-11T16:08:49.147Z,95391.51
2018-05-11T16:11:19.328Z,95394.47
2018-05-11T16:13:50.383Z,95391.47
2018-05-11T16:16:21.841Z,95394.78
2018-05-11T16:18:52.933Z,95396.64
2018-05-11T16:21:24.091Z,95396.38
2018-05-11T16:23:54.453Z,95400.77
2018-05-11T16:26:24.853Z,95399.31
2018-05-11T16:28:57.655Z,95398.41
2018-05-11T16:31:28.759Z,95398.37
2018-05-11T16:33:59.555Z,95395.95
2018-05-11T16:36:30.160Z,95399.73
2018-05-11T16:39:01.235Z,95399.57
2018-05-11T16:41:33.410Z,95399.41
2018-05-11T16:44:04.604Z,95398.92
2018-05-11T16:46:35.656Z,95400.70
2018-05-11T16:49:07.220Z,95396.11
2018-05-11T16:51:38.529Z,95401.06
2018-05-11T16:54:10.072Z,95400.98
2018-05-11T16:56:41.882Z,95402.61
2018-05-11T16:59:13.109Z,95399.75
2018-05-11T17:01:44.789Z,95401.14
2018-05-11T17:04:16.021Z,95403.63
2018-05-11T17:06:47.165Z,95402.52
2018-05-11T17:09:18.447Z,95404.94
2018-05-11T17:11:50.186Z,95403.56
2018-05-11T17:14:21.396Z,95402.22
2018-05-11T17:16:52.564Z,95395.05
2018-05-11T17:19:23.847Z,95393.28
2018-05-11T17:21:55.332Z,95395.28
2018-05-11T17:24:25.755Z,95397.53
2018-05-11T17:26:57.568Z,95401.64
2018-05-11T17:29:29.072Z,95402.91
2018-05-11T17:32:02.199Z,95409.69
2018-05-11T17:34:33.872Z,95405.31
2018-05-11T17:37:05.610Z,95406.81
2018-05-11T17:39:37.072Z,95406.66
2018-05-11T17:42:08.016Z,95408.06
2018-05-11T17:44:39.971Z,95411.31
2018-05-11T17:47:11.475Z,95412.14
2018-05-11T17:49:42.623Z,95412.08
2018-05-11T17:52:13.972Z,95419.22
2018-05-11T17:54:45.011Z,95418.19
2018-05-11T17:57:16.405Z,95418.84
2018-05-11T17:59:47.973Z,95418.94
2018-05-11T18:02:19.470Z,95418.80
2018-05-11T18:04:51.464Z,95418.64
2018-05-11T18:07:21.649Z,95420.01
2018-05-11T18:09:53.020Z,95418.60
2018-05-11T18:12:24.643Z,95420.92
2018-05-11T18:14:55.500Z,95418.19
2018-05-11T18:17:27.008Z,95420.69
2018-05-11T18:19:59.399Z,95427.30
2018-05-11T18:22:31.984Z,95428.63
2018-05-11T18:25:03.972Z,95428.94
2018-05-11T18:27:35.559Z,95426.52
2018-05-11T18:30:07.246Z,95427.25
2018-05-11T18:32:38.881Z,95428.12
2018-05-11T18:35:10.408Z,95432.19
2018-05-11T18:37:43.078Z,95434.89
2018-05-11T18:40:15.322Z,95434.08
2018-05-11T18:42:48.592Z,95436.31
2018-05-11T18:45:20.189Z,95435.25
2018-05-11T18:47:51.090Z,95444.05
2018-05-11T18:50:21.547Z,95447.62
2018-05-11T18:52:53.004Z,95452.98
2018-05-11T18:55:24.348Z,95451.63
2018-05-11T18:57:55.394Z,95454.53
2018-05-11T19:00:27.070Z,95453.34
2018-05-11T19:02:59.155Z,95458.27
2018-05-11T19:05:30.169Z,95458.83
2018-05-11T19:08:01.671Z,95464.49
2018-05-11T19:10:31.201Z,95468.55
2018-05-11T19:13:02.761Z,95470.34
2018-05-11T19:15:33.869Z,95475.98
2018-05-11T19:18:05.142Z,95479.56
2018-05-11T19:20:37.316Z,95481.87
2018-05-11T19:23:09.340Z,95483.63
2018-05-11T19:25:41.074Z,95488.94
2018-05-11T19:28:13.821Z,95495.17
2018-05-11T19:30:44.463Z,95497.59
2018-05-11T19:33:15.333Z,95494.77
2018-05-11T19:35:47.451Z,95495.41
2018-05-11T19:38:20.040Z,95496.53
2018-05-11T19:40:51.662Z,95497.81
2018-05-11T19:43:23.071Z,95495.78
2018-05-11T19:45:54.255Z,95503.23
2018-05-11T19:48:25.291Z,95497.38
2018-05-11T19:50:55.425Z,95495.80
2018-05-11T19:53:27.490Z,95499.51
2018-05-11T19:55:58.779Z,95501.91
2018-05-11T19:58:30.909Z,95498.56
2018-05-11T20:01:02.391Z,95505.06
2018-05-11T20:03:33.659Z,95505.30
2018-05-11T20:06:05.478Z,95500.23
2018-05-11T20:08:37.602Z,95501.49
2018-05-11T20:11:09.437Z,95502.80
2018-05-11T20:13:41.042Z,95500.97
2018-05-11T20:16:12.532Z,95499.59
2018-05-11T20:18:44.214Z,95505.12
2018-05-11T20:21:15.872Z,95502.64
2018-05-11T20:23:48.480Z,95505.88
2018-05-11T20:26:20.662Z,95505.56
2018-05-11T20:28:51.359Z,95513.19
2018-05-11T20:31:23.256Z,95515.84
2018-05-11T20:33:54.845Z,95515.83
2018-05-11T20:36:26.989Z,95515.64
2018-05-11T20:38:58.272Z,95516.62
2018-05-11T20:41:31.572Z,95515.22
2018-05-11T20:44:03.622Z,95517.41
2018-05-11T20:46:35.687Z,95525.16
2018-05-11T20:49:08.985Z,95525.06
2018-05-11T20:51:41.743Z,95522.97
2018-05-11T20:54:13.598Z,95520.13
2018-05-11T20:56:44.537Z,95526.66
2018-05-11T20:59:16.353Z,95527.81
2018-05-11T21:01:47.284Z,95528.84
2018-05-11T21:04:18.989Z,95536.44
2018-05-11T21:06:49.868Z,95536.05
2018-05-11T21:09:21.314Z,95532.48
2018-05-11T21:11:53.084Z,95534.50
2018-05-11T21:14:26.159Z,95533.14
2018-05-11T21:16:57.955Z,95528.83
2018-05-11T21:19:29.697Z,95532.78
2018-05-11T21:22:02.496Z,95529.94
2018-05-11T21:24:36.508Z,95529.14
2018-05-11T21:27:08.413Z,95535.25
2018-05-11T21:29:40.150Z,95535.36
2018-05-11T21:32:11.128Z,95538.55
2018-05-11T21:34:43.446Z,95539.45
2018-05-11T21:37:14.757Z,95543.00
2018-05-11T21:39:47.172Z,95546.00
2018-05-11T21:42:19.261Z,95547.75
2018-05-11T21:44:50.213Z,95548.83
2018-05-11T21:47:21.768Z,95548.28
2018-05-11T21:49:51.890Z,95541.66
2018-05-11T21:52:23.451Z,95546.84
2018-05-11T21:54:54.320Z,95551.74
2018-05-11T21:57:30.105Z,95551.12
2018-05-11T22:00:02.302Z,95559.34
2018-05-11T22:02:33.808Z,95556.45
2018-05-11T22:05:05.243Z,95552.78
2018-05-11T22:07:37.546Z,95552.19
2018-05-11T22:10:09.035Z,95554.44
2018-05-11T22:12:41.739Z,95556.17
2018-05-11T22:15:14.631Z,95552.82
2018-05-11T22:17:46.136Z,95552.64
2018-05-11T22:20:17.317Z,95553.55
2018-05-11T22:22:49.128Z,95551.93
2018-05-11T22:25:20.319Z,95550.63
2018-05-11T22:27:50.774Z,95550.00
2018-05-11T22:30:20.872Z,95549.22
2018-05-11T22:32:52.926Z,95552.88
2018-05-11T22:35:24.578Z,95551.64
2018-05-11T22:37:57.001Z,95554.59
2018-05-11T22:40:28.796Z,95551.16
2018-05-11T22:43:00.088Z,95553.38
2018-05-11T22:45:32.311Z,95550.91
2018-05-11T22:48:04.227Z,95548.41
2018-05-11T22:50:36.045Z,95549.22
2018-05-11T22:53:08.572Z,95549.05
2018-05-11T22:55:41.166Z,95548.08
2018-05-11T22:58:12.996Z,95546.19
2018-05-11T23:00:45.164Z,95547.16
2018-05-11T23:03:16.423Z,95542.38
2018-05-11T23:05:48.969Z,95537.52
2018-05-11T23:08:18.769Z,95538.81
2018-05-11T23:10:50.133Z,95536.88
2018-05-11T23:13:20.315Z,95537.74
2018-05-11T23:15:52.213Z,95541.42
2018-05-11T23:18:23.479Z,95538.74
2018-05-11T23:20:55.462Z,95538.03
2018-05-11T23:23:26.588Z,95535.06
2018-05-11T23:25:58.600Z,95532.03
2018-05-11T23:28:30.999Z,95531.34
2018-05-11T23:31:03.137Z,95527.06
2018-05-11T23:33:34.630Z,95524.77
2018-05-11T23:36:06.579Z,95521.57
2018-05-11T23:38:38.424Z,95519.84
2018-05-11T23:41:11.124Z,95513.98
2018-05-11T23:43:44.276Z,95506.91
2018-05-11T23:46:16.092Z,95512.98
2018-05-11T23:48:48.443Z,95516.88
2018-05-11T23:51:21.057Z,95513.88
2018-05-11T23:53:52.918Z,95511.69
2018-05-11T23:56:24.725Z,95506.45
2018-05-11T23:58:57.043Z,95511.30
